Main page
METAR-TAF:

METAR-TAF

Airports :

Logroño–Agoncillo Airport

Logroño, Spain

latitude: 42-27N, longitude: 002-20W, elevation: 353 m

Current weather observation

The report was made 18 minutes ago, at 12:30 UTC
Wind 8 kt from the West/Northwest, varying between West and North/Northwest
Temperature 22°C
Humidity 57%
Pressure 1019 hPa
Visibility 10 km or more
Few clouds at a height of 3700 ft, Towering cumulus.
Scattered clouds at a height of 5900 ft

METAR: LELO 211230Z 29008KT 260V340 9999 FEW037TCU SCT059 22/13 Q1019

Time: 14:48 (12:48 UTC)

Forecast

The report was made 4 hours and 48 minutes ago, at 08:00 UTC
Forecast valid from 21 at 09 UTC to 22 at 09 UTC
Wind 8 kt from the West/Northwest
Visibility 10 km or more
Few clouds at a height of 2500 ft
Scattered clouds at a height of 3000 ft
Probability 30% :
Temporary
from 21 at 11 UTC to 21 at 18 UTC
Few clouds at a height of 2500 ft, Towering cumulus.

TAF: LELO 210800Z 2109/2209 29008KT 9999 FEW025 SCT030 TX25/2115Z TN12/2206Z PROB30 TEMPO 2111/2118 FEW025TCU

Weather observations and forecasts of more than 4000 airports (METAR and TAF reports).

The available stations are represented by yellow and red dots on the map.

Hover mouse over dot to see the name of the station.

Then click to see weather observations and forecasts.

To change the map : click on the green buttons with a black cross to zoom in, on the green button with a dash to zoom out, or on the green arrows for adjacent maps.


METAR-TAF: